sensor_id;sensor_type;location;lat;lon;timestamp;temperature;humidity
51655;DHT22;37732;53.106;7.030;2023-03-01T00:01:52;-0.10;99.90
51655;DHT22;37732;53.106;7.030;2023-03-01T00:04:18;0.80;99.90
51655;DHT22;37732;53.106;7.030;2023-03-01T00:06:43;-0.20;99.90
51655;DHT22;37732;53.106;7.030;2023-03-01T00:09:12;0.90;99.90
51655;DHT22;37732;53.106;7.030;2023-03-01T00:11:38;-0.20;99.90
51655;DHT22;37732;53.106;7.030;2023-03-01T00:14:04;-0.20;99.90
51655;DHT22;37732;53.106;7.030;2023-03-01T00:16:39;-0.30;99.90
51655;DHT22;37732;53.106;7.030;2023-03-01T00:19:06;-0.20;99.90
51655;DHT22;37732;53.106;7.030;2023-03-01T00:21:32;-0.30;99.90
51655;DHT22;37732;53.106;7.030;2023-03-01T00:23:59;-0.30;99.90
51655;DHT22;37732;53.106;7.030;2023-03-01T00:26:26;-0.40;99.90
51655;DHT22;37732;53.106;7.030;2023-03-01T00:28:51;-0.40;99.90
51655;DHT22;37732;53.106;7.030;2023-03-01T00:31:20;-0.40;99.90
51655;DHT22;37732;53.106;7.030;2023-03-01T00:33:46;-0.40;99.90
51655;DHT22;37732;53.106;7.030;2023-03-01T00:36:14;-0.40;99.90
51655;DHT22;37732;53.106;7.030;2023-03-01T00:38:42;-0.50;99.90
51655;DHT22;37732;53.106;7.030;2023-03-01T00:41:11;-0.50;99.90
51655;DHT22;37732;53.106;7.030;2023-03-01T00:43:37;-0.60;99.90
51655;DHT22;37732;53.106;7.030;2023-03-01T00:46:05;-0.60;99.90
51655;DHT22;37732;53.106;7.030;2023-03-01T00:48:31;-0.60;99.90
51655;DHT22;37732;53.106;7.030;2023-03-01T00:50:57;-0.60;99.90
51655;DHT22;37732;53.106;7.030;2023-03-01T00:53:28;-0.60;99.90
51655;DHT22;37732;53.106;7.030;2023-03-01T00:55:57;-0.60;99.90
51655;DHT22;37732;53.106;7.030;2023-03-01T00:58:22;-0.70;99.90
51655;DHT22;37732;53.106;7.030;2023-03-01T01:00:48;-0.70;99.90
51655;DHT22;37732;53.106;7.030;2023-03-01T01:03:13;0.40;99.90
51655;DHT22;37732;53.106;7.030;2023-03-01T01:05:39;-0.70;99.90
51655;DHT22;37732;53.106;7.030;2023-03-01T01:08:05;-0.70;99.90
51655;DHT22;37732;53.106;7.030;2023-03-01T01:10:33;-0.80;99.90
51655;DHT22;37732;53.106;7.030;2023-03-01T01:12:58;-0.80;99.90
51655;DHT22;37732;53.106;7.030;2023-03-01T01:15:24;-0.30;99.90
51655;DHT22;37732;53.106;7.030;2023-03-01T01:17:49;-0.80;99.90
51655;DHT22;37732;53.106;7.030;2023-03-01T01:20:15;-0.80;99.90
51655;DHT22;37732;53.106;7.030;2023-03-01T01:22:41;-0.80;99.90
51655;DHT22;37732;53.106;7.030;2023-03-01T01:25:07;-0.90;99.90
51655;DHT22;37732;53.106;7.030;2023-03-01T01:27:32;-0.90;99.90
51655;DHT22;37732;53.106;7.030;2023-03-01T01:29:58;0.00;99.90
51655;DHT22;37732;53.106;7.030;2023-03-01T01:32:23;0.00;99.90
51655;DHT22;37732;53.106;7.030;2023-03-01T01:34:49;-0.90;99.90
51655;DHT22;37732;53.106;7.030;2023-03-01T01:37:15;-0.90;99.90
51655;DHT22;37732;53.106;7.030;2023-03-01T01:39:41;-0.70;99.90
51655;DHT22;37732;53.106;7.030;2023-03-01T01:42:15;-1.00;99.90
51655;DHT22;37732;53.106;7.030;2023-03-01T01:44:45;-1.00;99.90
51655;DHT22;37732;53.106;7.030;2023-03-01T01:47:19;-1.00;99.90
51655;DHT22;37732;53.106;7.030;2023-03-01T01:49:52;-1.00;99.90
51655;DHT22;37732;53.106;7.030;2023-03-01T01:52:23;-1.10;99.90
51655;DHT22;37732;53.106;7.030;2023-03-01T01:57:43;-1.10;99.90
51655;DHT22;37732;53.106;7.030;2023-03-01T02:08:05;-1.20;99.90
51655;DHT22;37732;53.106;7.030;2023-03-01T02:10:33;-1.20;99.90
51655;DHT22;37732;53.106;7.030;2023-03-01T02:13:00;-1.30;99.90
51655;DHT22;37732;53.106;7.030;2023-03-01T02:15:27;-1.30;99.90
51655;DHT22;37732;53.106;7.030;2023-03-01T02:17:57;-1.30;99.90
51655;DHT22;37732;53.106;7.030;2023-03-01T02:22:58;-1.30;99.90
51655;DHT22;37732;53.106;7.030;2023-03-01T02:25:39;-1.30;99.90
51655;DHT22;37732;53.106;7.030;2023-03-01T02:30:45;-1.30;99.90
51655;DHT22;37732;53.106;7.030;2023-03-01T02:33:32;-1.30;99.90
51655;DHT22;37732;53.106;7.030;2023-03-01T02:36:03;-1.30;99.90
51655;DHT22;37732;53.106;7.030;2023-03-01T02:38:31;-1.40;99.90
51655;DHT22;37732;53.106;7.030;2023-03-01T02:40:57;-1.30;99.90
51655;DHT22;37732;53.106;7.030;2023-03-01T02:43:27;-1.30;99.90
51655;DHT22;37732;53.106;7.030;2023-03-01T02:45:58;-1.30;99.90
51655;DHT22;37732;53.106;7.030;2023-03-01T02:48:23;-1.40;99.90
51655;DHT22;37732;53.106;7.030;2023-03-01T02:51:33;-1.40;99.90
51655;DHT22;37732;53.106;7.030;2023-03-01T02:54:21;-1.40;99.90
51655;DHT22;37732;53.106;7.030;2023-03-01T02:56:51;-1.50;99.90
51655;DHT22;37732;53.106;7.030;2023-03-01T02:59:20;-1.60;99.90
51655;DHT22;37732;53.106;7.030;2023-03-01T03:01:46;-1.60;99.90
51655;DHT22;37732;53.106;7.030;2023-03-01T03:04:15;-1.60;99.90
51655;DHT22;37732;53.106;7.030;2023-03-01T03:06:45;-1.60;99.90
51655;DHT22;37732;53.106;7.030;2023-03-01T03:09:12;-1.70;99.90
51655;DHT22;37732;53.106;7.030;2023-03-01T03:11:38;-1.70;99.90
51655;DHT22;37732;53.106;7.030;2023-03-01T03:14:10;-1.70;99.90
51655;DHT22;37732;53.106;7.030;2023-03-01T03:16:42;-1.70;99.90
51655;DHT22;37732;53.106;7.030;2023-03-01T03:19:09;-1.70;99.90
51655;DHT22;37732;53.106;7.030;2023-03-01T03:21:35;-1.70;99.90
51655;DHT22;37732;53.106;7.030;2023-03-01T03:24:01;-1.70;99.90
51655;DHT22;37732;53.106;7.030;2023-03-01T03:26:27;-1.70;99.90
51655;DHT22;37732;53.106;7.030;2023-03-01T03:28:52;-1.80;99.90
51655;DHT22;37732;53.106;7.030;2023-03-01T03:31:18;-1.80;99.90
51655;DHT22;37732;53.106;7.030;2023-03-01T03:33:44;-1.80;99.90
51655;DHT22;37732;53.106;7.030;2023-03-01T03:36:14;-1.90;99.90
51655;DHT22;37732;53.106;7.030;2023-03-01T03:38:43;-1.90;99.90
51655;DHT22;37732;53.106;7.030;2023-03-01T03:41:10;-1.30;99.90
51655;DHT22;37732;53.106;7.030;2023-03-01T03:43:38;-1.90;99.90
51655;DHT22;37732;53.106;7.030;2023-03-01T03:46:05;-1.90;99.90
51655;DHT22;37732;53.106;7.030;2023-03-01T03:48:36;-1.90;99.90
51655;DHT22;37732;53.106;7.030;2023-03-01T03:51:02;-1.90;99.90
51655;DHT22;37732;53.106;7.030;2023-03-01T03:53:31;-2.00;99.90
51655;DHT22;37732;53.106;7.030;2023-03-01T03:55:57;-2.00;99.90
51655;DHT22;37732;53.106;7.030;2023-03-01T03:58:24;-2.00;99.90
51655;DHT22;37732;53.106;7.030;2023-03-01T04:00:56;-2.00;99.90
51655;DHT22;37732;53.106;7.030;2023-03-01T04:03:23;-2.00;99.90
51655;DHT22;37732;53.106;7.030;2023-03-01T04:05:51;-1.80;99.90
51655;DHT22;37732;53.106;7.030;2023-03-01T04:08:21;-1.80;99.90
51655;DHT22;37732;53.106;7.030;2023-03-01T04:10:50;-2.00;99.90
51655;DHT22;37732;53.106;7.030;2023-03-01T04:13:21;-2.00;99.90
51655;DHT22;37732;53.106;7.030;2023-03-01T04:15:51;-2.00;99.90
51655;DHT22;37732;53.106;7.030;2023-03-01T04:18:18;-2.00;99.90
51655;DHT22;37732;53.106;7.030;2023-03-01T04:20:45;-2.00;99.90
51655;DHT22;37732;53.106;7.030;2023-03-01T04:23:16;-2.00;99.90
51655;DHT22;37732;53.106;7.030;2023-03-01T04:25:55;-2.00;99.90
51655;DHT22;37732;53.106;7.030;2023-03-01T04:28:30;-2.00;99.90
51655;DHT22;37732;53.106;7.030;2023-03-01T04:30:58;-2.00;99.90
51655;DHT22;37732;53.106;7.030;2023-03-01T04:33:27;-2.00;99.90
51655;DHT22;37732;53.106;7.030;2023-03-01T04:35:52;-2.00;99.90
51655;DHT22;37732;53.106;7.030;2023-03-01T04:38:19;-2.00;99.90
51655;DHT22;37732;53.106;7.030;2023-03-01T04:40:45;-2.00;99.90
51655;DHT22;37732;53.106;7.030;2023-03-01T04:43:11;-2.00;99.90
51655;DHT22;37732;53.106;7.030;2023-03-01T04:45:39;-2.10;99.90
51655;DHT22;37732;53.106;7.030;2023-03-01T04:48:05;-2.10;99.90
51655;DHT22;37732;53.106;7.030;2023-03-01T04:50:31;-2.10;99.90
51655;DHT22;37732;53.106;7.030;2023-03-01T04:52:57;-2.10;99.90
51655;DHT22;37732;53.106;7.030;2023-03-01T04:55:25;-2.10;99.90
51655;DHT22;37732;53.106;7.030;2023-03-01T04:57:51;-2.10;99.90
51655;DHT22;37732;53.106;7.030;2023-03-01T05:00:17;-2.10;99.90
51655;DHT22;37732;53.106;7.030;2023-03-01T05:02:57;-2.10;99.90
51655;DHT22;37732;53.106;7.030;2023-03-01T05:05:31;-2.10;99.90
51655;DHT22;37732;53.106;7.030;2023-03-01T05:07:59;-1.80;99.90
51655;DHT22;37732;53.106;7.030;2023-03-01T05:10:27;-2.20;99.90
51655;DHT22;37732;53.106;7.030;2023-03-01T05:12:55;-2.20;99.90
51655;DHT22;37732;53.106;7.030;2023-03-01T05:15:23;-2.20;99.90
51655;DHT22;37732;53.106;7.030;2023-03-01T05:17:51;-2.30;99.90
51655;DHT22;37732;53.106;7.030;2023-03-01T05:20:18;-2.30;99.90
51655;DHT22;37732;53.106;7.030;2023-03-01T05:22:49;-2.30;99.90
51655;DHT22;37732;53.106;7.030;2023-03-01T05:25:14;-2.30;99.90
51655;DHT22;37732;53.106;7.030;2023-03-01T05:27:40;-2.30;99.90
51655;DHT22;37732;53.106;7.030;2023-03-01T05:30:07;-2.20;99.90
51655;DHT22;37732;53.106;7.030;2023-03-01T05:32:50;-2.40;99.90
51655;DHT22;37732;53.106;7.030;2023-03-01T05:35:20;-2.40;99.90
51655;DHT22;37732;53.106;7.030;2023-03-01T05:37:48;-2.40;99.90
51655;DHT22;37732;53.106;7.030;2023-03-01T05:40:17;-2.40;99.90
51655;DHT22;37732;53.106;7.030;2023-03-01T05:42:45;-2.10;99.90
51655;DHT22;37732;53.106;7.030;2023-03-01T05:45:11;-2.40;99.90
51655;DHT22;37732;53.106;7.030;2023-03-01T05:47:41;-2.40;99.90
51655;DHT22;37732;53.106;7.030;2023-03-01T05:50:22;-2.40;99.90
51655;DHT22;37732;53.106;7.030;2023-03-01T05:52:56;-2.40;99.90
51655;DHT22;37732;53.106;7.030;2023-03-01T05:55:22;-2.50;99.90
51655;DHT22;37732;53.106;7.030;2023-03-01T05:57:48;-2.50;99.90
51655;DHT22;37732;53.106;7.030;2023-03-01T06:00:16;-2.50;99.90
51655;DHT22;37732;53.106;7.030;2023-03-01T06:02:43;-2.50;99.90
51655;DHT22;37732;53.106;7.030;2023-03-01T06:05:11;-2.60;99.90
51655;DHT22;37732;53.106;7.030;2023-03-01T06:07:37;-2.60;99.90
51655;DHT22;37732;53.106;7.030;2023-03-01T06:10:04;-2.60;99.90
51655;DHT22;37732;53.106;7.030;2023-03-01T06:12:32;-2.70;99.90
51655;DHT22;37732;53.106;7.030;2023-03-01T06:14:58;-2.60;99.90
51655;DHT22;37732;53.106;7.030;2023-03-01T06:17:24;-2.70;99.90
51655;DHT22;37732;53.106;7.030;2023-03-01T06:19:49;-2.70;99.90
51655;DHT22;37732;53.106;7.030;2023-03-01T06:22:15;-2.70;99.90
51655;DHT22;37732;53.106;7.030;2023-03-01T06:24:41;-2.80;99.90
51655;DHT22;37732;53.106;7.030;2023-03-01T06:27:06;-2.70;99.90
51655;DHT22;37732;53.106;7.030;2023-03-01T06:29:32;-2.70;99.90
51655;DHT22;37732;53.106;7.030;2023-03-01T06:31:58;-2.70;99.90
51655;DHT22;37732;53.106;7.030;2023-03-01T06:34:23;-2.60;99.90
51655;DHT22;37732;53.106;7.030;2023-03-01T06:36:49;-2.60;99.90
51655;DHT22;37732;53.106;7.030;2023-03-01T06:39:15;-2.60;99.90
51655;DHT22;37732;53.106;7.030;2023-03-01T06:41:42;-2.50;99.90
51655;DHT22;37732;53.106;7.030;2023-03-01T06:44:07;-2.50;99.90
51655;DHT22;37732;53.106;7.030;2023-03-01T06:46:33;-2.50;99.90
51655;DHT22;37732;53.106;7.030;2023-03-01T06:48:58;-2.40;99.90
51655;DHT22;37732;53.106;7.030;2023-03-01T06:51:25;-2.40;99.90
51655;DHT22;37732;53.106;7.030;2023-03-01T06:53:50;-2.40;99.90
51655;DHT22;37732;53.106;7.030;2023-03-01T06:56:16;-2.30;99.90
51655;DHT22;37732;53.106;7.030;2023-03-01T06:58:42;-2.30;99.90
51655;DHT22;37732;53.106;7.030;2023-03-01T07:01:08;-2.30;99.90
51655;DHT22;37732;53.106;7.030;2023-03-01T07:03:34;-2.30;99.90
51655;DHT22;37732;53.106;7.030;2023-03-01T07:06:00;-2.30;99.90
51655;DHT22;37732;53.106;7.030;2023-03-01T07:08:26;-2.30;99.90
51655;DHT22;37732;53.106;7.030;2023-03-01T07:10:56;-2.20;99.90
51655;DHT22;37732;53.106;7.030;2023-03-01T07:13:21;-0.90;99.90
51655;DHT22;37732;53.106;7.030;2023-03-01T07:15:47;-2.20;99.90
51655;DHT22;37732;53.106;7.030;2023-03-01T07:18:13;-2.10;99.90
51655;DHT22;37732;53.106;7.030;2023-03-01T07:20:38;-2.10;99.90
51655;DHT22;37732;53.106;7.030;2023-03-01T07:23:05;-2.10;99.90
51655;DHT22;37732;53.106;7.030;2023-03-01T07:25:31;-2.00;99.90
51655;DHT22;37732;53.106;7.030;2023-03-01T07:27:58;-2.00;99.90
51655;DHT22;37732;53.106;7.030;2023-03-01T07:30:24;-1.90;99.90
51655;DHT22;37732;53.106;7.030;2023-03-01T07:32:51;-1.80;99.90
51655;DHT22;37732;53.106;7.030;2023-03-01T07:35:17;-1.80;99.90
51655;DHT22;37732;53.106;7.030;2023-03-01T07:37:43;-1.70;99.90
51655;DHT22;37732;53.106;7.030;2023-03-01T07:40:09;-1.70;99.90
51655;DHT22;37732;53.106;7.030;2023-03-01T07:42:35;-1.60;99.90
51655;DHT22;37732;53.106;7.030;2023-03-01T07:45:01;-1.30;99.90
51655;DHT22;37732;53.106;7.030;2023-03-01T07:47:27;-1.50;99.90
51655;DHT22;37732;53.106;7.030;2023-03-01T07:49:52;-1.40;99.90
51655;DHT22;37732;53.106;7.030;2023-03-01T07:52:18;-1.40;99.90
51655;DHT22;37732;53.106;7.030;2023-03-01T07:54:43;-1.30;99.90
51655;DHT22;37732;53.106;7.030;2023-03-01T07:57:10;-1.20;99.90
51655;DHT22;37732;53.106;7.030;2023-03-01T07:59:35;-1.10;99.90
51655;DHT22;37732;53.106;7.030;2023-03-01T08:02:01;-1.00;99.90
51655;DHT22;37732;53.106;7.030;2023-03-01T08:04:27;-1.00;99.90
51655;DHT22;37732;53.106;7.030;2023-03-01T08:06:54;-1.00;99.90
51655;DHT22;37732;53.106;7.030;2023-03-01T08:09:20;-0.20;99.90
51655;DHT22;37732;53.106;7.030;2023-03-01T08:11:46;-0.90;99.90
51655;DHT22;37732;53.106;7.030;2023-03-01T08:14:12;-0.90;99.90
51655;DHT22;37732;53.106;7.030;2023-03-01T08:16:38;-0.80;99.90
51655;DHT22;37732;53.106;7.030;2023-03-01T08:19:08;-0.70;99.90
51655;DHT22;37732;53.106;7.030;2023-03-01T08:21:34;0.40;99.90
51655;DHT22;37732;53.106;7.030;2023-03-01T08:24:01;-0.60;99.90
51655;DHT22;37732;53.106;7.030;2023-03-01T08:26:27;-0.50;99.90
51655;DHT22;37732;53.106;7.030;2023-03-01T08:28:53;-0.40;99.90
51655;DHT22;37732;53.106;7.030;2023-03-01T08:31:27;-0.40;99.90
51655;DHT22;37732;53.106;7.030;2023-03-01T08:33:56;0.20;99.90
51655;DHT22;37732;53.106;7.030;2023-03-01T08:36:23;-0.30;99.90
51655;DHT22;37732;53.106;7.030;2023-03-01T08:38:49;-0.90;99.90
51655;DHT22;37732;53.106;7.030;2023-03-01T08:41:15;0.30;99.90
51655;DHT22;37732;53.106;7.030;2023-03-01T08:43:41;0.40;99.90
51655;DHT22;37732;53.106;7.030;2023-03-01T08:46:07;0.90;99.90
51655;DHT22;37732;53.106;7.030;2023-03-01T08:48:32;1.30;99.90
51655;DHT22;37732;53.106;7.030;2023-03-01T08:51:11;0.30;99.90
51655;DHT22;37732;53.106;7.030;2023-03-01T08:53:38;0.30;99.90
51655;DHT22;37732;53.106;7.030;2023-03-01T08:56:04;0.50;99.90
51655;DHT22;37732;53.106;7.030;2023-03-01T08:58:30;0.50;99.90
51655;DHT22;37732;53.106;7.030;2023-03-01T09:00:56;0.60;99.90
51655;DHT22;37732;53.106;7.030;2023-03-01T09:03:22;1.40;99.90
51655;DHT22;37732;53.106;7.030;2023-03-01T09:05:49;1.40;99.90
51655;DHT22;37732;53.106;7.030;2023-03-01T09:08:16;0.80;99.90
51655;DHT22;37732;53.106;7.030;2023-03-01T09:10:42;0.80;99.90
51655;DHT22;37732;53.106;7.030;2023-03-01T09:13:08;0.90;99.90
51655;DHT22;37732;53.106;7.030;2023-03-01T09:15:33;0.90;99.90
51655;DHT22;37732;53.106;7.030;2023-03-01T09:17:59;1.00;99.90
51655;DHT22;37732;53.106;7.030;2023-03-01T09:20:25;1.30;99.90
51655;DHT22;37732;53.106;7.030;2023-03-01T09:22:51;1.20;99.90
51655;DHT22;37732;53.106;7.030;2023-03-01T09:25:16;1.30;99.90
51655;DHT22;37732;53.106;7.030;2023-03-01T09:27:42;1.30;99.90
51655;DHT22;37732;53.106;7.030;2023-03-01T09:30:08;1.50;99.90
51655;DHT22;37732;53.106;7.030;2023-03-01T09:32:34;1.50;99.90
51655;DHT22;37732;53.106;7.030;2023-03-01T09:35:00;1.70;99.90
51655;DHT22;37732;53.106;7.030;2023-03-01T09:37:33;1.90;99.90
51655;DHT22;37732;53.106;7.030;2023-03-01T09:39:59;2.10;99.90
51655;DHT22;37732;53.106;7.030;2023-03-01T09:42:25;2.10;99.90
51655;DHT22;37732;53.106;7.030;2023-03-01T09:47:44;2.30;99.90
51655;DHT22;37732;53.106;7.030;2023-03-01T09:50:15;2.40;99.90
51655;DHT22;37732;53.106;7.030;2023-03-01T09:58:06;2.80;99.90
51655;DHT22;37732;53.106;7.030;2023-03-01T10:00:43;2.90;99.90
51655;DHT22;37732;53.106;7.030;2023-03-01T10:03:27;3.10;99.90
51655;DHT22;37732;53.106;7.030;2023-03-01T10:06:02;3.20;99.90
51655;DHT22;37732;53.106;7.030;2023-03-01T10:08:46;3.30;99.90
51655;DHT22;37732;53.106;7.030;2023-03-01T10:11:37;3.70;99.90
51655;DHT22;37732;53.106;7.030;2023-03-01T10:14:09;3.60;99.90
51655;DHT22;37732;53.106;7.030;2023-03-01T10:16:57;3.70;99.90
51655;DHT22;37732;53.106;7.030;2023-03-01T10:19:31;3.80;99.90
51655;DHT22;37732;53.106;7.030;2023-03-01T10:22:22;4.10;99.90
51655;DHT22;37732;53.106;7.030;2023-03-01T10:24:47;4.00;99.90
51655;DHT22;37732;53.106;7.030;2023-03-01T10:32:48;4.40;99.90
51655;DHT22;37732;53.106;7.030;2023-03-01T10:35:17;4.50;99.90
51655;DHT22;37732;53.106;7.030;2023-03-01T10:38:11;4.60;99.90
51655;DHT22;37732;53.106;7.030;2023-03-01T10:40:54;4.70;99.90
51655;DHT22;37732;53.106;7.030;2023-03-01T10:43:20;4.90;99.90
51655;DHT22;37732;53.106;7.030;2023-03-01T10:45:47;5.10;99.90
51655;DHT22;37732;53.106;7.030;2023-03-01T10:48:24;5.20;99.90
51655;DHT22;37732;53.106;7.030;2023-03-01T10:56:02;5.60;99.90
51655;DHT22;37732;53.106;7.030;2023-03-01T10:58:29;5.80;99.90
51655;DHT22;37732;53.106;7.030;2023-03-01T11:01:09;5.90;99.90
51655;DHT22;37732;53.106;7.030;2023-03-01T11:04:13;6.00;99.90
51655;DHT22;37732;53.106;7.030;2023-03-01T11:06:40;6.00;99.90
51655;DHT22;37732;53.106;7.030;2023-03-01T11:09:21;6.30;99.90
51655;DHT22;37732;53.106;7.030;2023-03-01T11:11:58;6.10;99.90
51655;DHT22;37732;53.106;7.030;2023-03-01T11:14:27;6.30;99.90
51655;DHT22;37732;53.106;7.030;2023-03-01T11:17:29;6.40;99.90
51655;DHT22;37732;53.106;7.030;2023-03-01T11:22:30;6.60;99.90
51655;DHT22;37732;53.106;7.030;2023-03-01T11:24:57;6.80;99.90
51655;DHT22;37732;53.106;7.030;2023-03-01T11:27:30;6.80;99.90
51655;DHT22;37732;53.106;7.030;2023-03-01T11:30:03;7.10;99.90
51655;DHT22;37732;53.106;7.030;2023-03-01T11:32:39;6.80;99.90
51655;DHT22;37732;53.106;7.030;2023-03-01T11:35:17;6.90;99.90
51655;DHT22;37732;53.106;7.030;2023-03-01T11:38:03;7.00;99.90
51655;DHT22;37732;53.106;7.030;2023-03-01T11:40:43;7.00;99.90
51655;DHT22;37732;53.106;7.030;2023-03-01T11:43:13;7.00;99.90
51655;DHT22;37732;53.106;7.030;2023-03-01T11:45:57;7.40;99.90
51655;DHT22;37732;53.106;7.030;2023-03-01T11:51:12;7.30;99.90
51655;DHT22;37732;53.106;7.030;2023-03-01T11:53:50;7.40;99.90
51655;DHT22;37732;53.106;7.030;2023-03-01T11:56:35;7.40;99.90
51655;DHT22;37732;53.106;7.030;2023-03-01T11:59:32;7.50;99.90
51655;DHT22;37732;53.106;7.030;2023-03-01T12:10:56;7.70;99.90
51655;DHT22;37732;53.106;7.030;2023-03-01T12:32:47;8.20;99.90
51655;DHT22;37732;53.106;7.030;2023-03-01T12:37:56;8.30;99.90
51655;DHT22;37732;53.106;7.030;2023-03-01T12:49:14;8.60;99.90
51655;DHT22;37732;53.106;7.030;2023-03-01T12:51:44;8.60;99.90
51655;DHT22;37732;53.106;7.030;2023-03-01T12:54:24;8.60;99.90
51655;DHT22;37732;53.106;7.030;2023-03-01T12:56:51;8.50;99.90
51655;DHT22;37732;53.106;7.030;2023-03-01T12:59:39;8.60;99.90
51655;DHT22;37732;53.106;7.030;2023-03-01T13:04:59;8.70;99.90
51655;DHT22;37732;53.106;7.030;2023-03-01T13:13:01;8.80;99.90
51655;DHT22;37732;53.106;7.030;2023-03-01T13:15:33;9.00;99.90
51655;DHT22;37732;53.106;7.030;2023-03-01T13:20:45;8.80;99.90
51655;DHT22;37732;53.106;7.030;2023-03-01T13:26:06;8.80;99.90
51655;DHT22;37732;53.106;7.030;2023-03-01T13:33:53;8.90;99.90
51655;DHT22;37732;53.106;7.030;2023-03-01T13:46:43;8.80;99.90
51655;DHT22;37732;53.106;7.030;2023-03-01T13:49:13;8.80;99.90
51655;DHT22;37732;53.106;7.030;2023-03-01T13:51:39;8.80;99.90
51655;DHT22;37732;53.106;7.030;2023-03-01T13:54:09;8.80;99.90
51655;DHT22;37732;53.106;7.030;2023-03-01T13:56:37;8.80;99.90
51655;DHT22;37732;53.106;7.030;2023-03-01T13:59:06;8.80;99.90
51655;DHT22;37732;53.106;7.030;2023-03-01T14:01:38;8.80;99.90
51655;DHT22;37732;53.106;7.030;2023-03-01T14:04:24;8.80;99.90
51655;DHT22;37732;53.106;7.030;2023-03-01T14:06:51;8.90;99.90
51655;DHT22;37732;53.106;7.030;2023-03-01T14:17:57;8.70;99.90
51655;DHT22;37732;53.106;7.030;2023-03-01T14:20:30;8.70;99.90
51655;DHT22;37732;53.106;7.030;2023-03-01T14:22:59;8.70;99.90
51655;DHT22;37732;53.106;7.030;2023-03-01T14:25:32;8.70;99.90
51655;DHT22;37732;53.106;7.030;2023-03-01T14:28:03;8.70;99.90
51655;DHT22;37732;53.106;7.030;2023-03-01T14:30:43;8.70;99.90
51655;DHT22;37732;53.106;7.030;2023-03-01T14:38:38;8.70;99.90
51655;DHT22;37732;53.106;7.030;2023-03-01T14:41:19;8.70;99.90
51655;DHT22;37732;53.106;7.030;2023-03-01T14:43:47;8.70;99.90
51655;DHT22;37732;53.106;7.030;2023-03-01T14:48:51;8.60;99.90
51655;DHT22;37732;53.106;7.030;2023-03-01T14:51:16;8.60;99.90
51655;DHT22;37732;53.106;7.030;2023-03-01T14:53:42;8.60;99.90
51655;DHT22;37732;53.106;7.030;2023-03-01T14:56:15;8.60;99.90
51655;DHT22;37732;53.106;7.030;2023-03-01T14:58:43;8.60;99.90
51655;DHT22;37732;53.106;7.030;2023-03-01T15:01:15;8.60;99.90
51655;DHT22;37732;53.106;7.030;2023-03-01T15:03:43;8.60;99.90
51655;DHT22;37732;53.106;7.030;2023-03-01T15:06:10;8.50;99.90
51655;DHT22;37732;53.106;7.030;2023-03-01T15:08:42;8.40;99.90
51655;DHT22;37732;53.106;7.030;2023-03-01T15:13:50;8.40;99.90
51655;DHT22;37732;53.106;7.030;2023-03-01T15:18:52;8.30;99.90
51655;DHT22;37732;53.106;7.030;2023-03-01T15:21:22;8.30;99.90
51655;DHT22;37732;53.106;7.030;2023-03-01T15:23:54;8.30;99.90
51655;DHT22;37732;53.106;7.030;2023-03-01T15:26:24;8.30;99.90
51655;DHT22;37732;53.106;7.030;2023-03-01T15:28:52;8.30;99.90
51655;DHT22;37732;53.106;7.030;2023-03-01T15:31:27;8.30;99.90
51655;DHT22;37732;53.106;7.030;2023-03-01T15:34:23;8.30;99.90
51655;DHT22;37732;53.106;7.030;2023-03-01T15:36:51;8.30;99.90
51655;DHT22;37732;53.106;7.030;2023-03-01T15:39:37;8.20;99.90
51655;DHT22;37732;53.106;7.030;2023-03-01T15:44:37;8.20;99.90
51655;DHT22;37732;53.106;7.030;2023-03-01T15:47:28;8.10;99.90
51655;DHT22;37732;53.106;7.030;2023-03-01T15:49:55;8.00;99.90
51655;DHT22;37732;53.106;7.030;2023-03-01T15:52:25;8.00;99.90
51655;DHT22;37732;53.106;7.030;2023-03-01T15:55:02;8.00;99.90
51655;DHT22;37732;53.106;7.030;2023-03-01T15:57:28;7.90;99.90
51655;DHT22;37732;53.106;7.030;2023-03-01T15:59:54;7.90;99.90
51655;DHT22;37732;53.106;7.030;2023-03-01T16:02:21;7.90;99.90
51655;DHT22;37732;53.106;7.030;2023-03-01T16:04:47;7.80;99.90
51655;DHT22;37732;53.106;7.030;2023-03-01T16:07:16;7.80;99.90
51655;DHT22;37732;53.106;7.030;2023-03-01T16:09:42;7.80;99.90
51655;DHT22;37732;53.106;7.030;2023-03-01T16:12:18;7.80;99.90
51655;DHT22;37732;53.106;7.030;2023-03-01T16:14:45;7.80;99.90
51655;DHT22;37732;53.106;7.030;2023-03-01T16:17:11;7.70;99.90
51655;DHT22;37732;53.106;7.030;2023-03-01T16:19:37;7.80;99.90
51655;DHT22;37732;53.106;7.030;2023-03-01T16:22:04;7.70;99.90
51655;DHT22;37732;53.106;7.030;2023-03-01T16:24:30;7.70;99.90
51655;DHT22;37732;53.106;7.030;2023-03-01T16:26:55;7.60;99.90
51655;DHT22;37732;53.106;7.030;2023-03-01T16:29:21;7.60;99.90
51655;DHT22;37732;53.106;7.030;2023-03-01T16:31:47;7.60;99.90
51655;DHT22;37732;53.106;7.030;2023-03-01T16:34:13;7.50;99.90
51655;DHT22;37732;53.106;7.030;2023-03-01T16:36:38;7.40;99.90
51655;DHT22;37732;53.106;7.030;2023-03-01T16:39:04;7.40;99.90
51655;DHT22;37732;53.106;7.030;2023-03-01T16:41:30;7.30;99.90
51655;DHT22;37732;53.106;7.030;2023-03-01T16:43:55;7.20;99.90
51655;DHT22;37732;53.106;7.030;2023-03-01T16:46:26;7.10;99.90
51655;DHT22;37732;53.106;7.030;2023-03-01T16:48:54;7.00;99.90
51655;DHT22;37732;53.106;7.030;2023-03-01T16:51:20;6.90;99.90
51655;DHT22;37732;53.106;7.030;2023-03-01T16:53:46;6.80;99.90
51655;DHT22;37732;53.106;7.030;2023-03-01T16:56:13;6.80;99.90
51655;DHT22;37732;53.106;7.030;2023-03-01T16:58:40;6.70;99.90
51655;DHT22;37732;53.106;7.030;2023-03-01T17:01:12;6.60;99.90
51655;DHT22;37732;53.106;7.030;2023-03-01T17:03:39;6.50;99.90
51655;DHT22;37732;53.106;7.030;2023-03-01T17:06:07;6.30;99.90
51655;DHT22;37732;53.106;7.030;2023-03-01T17:08:33;6.20;99.90
51655;DHT22;37732;53.106;7.030;2023-03-01T17:11:11;6.20;99.90
51655;DHT22;37732;53.106;7.030;2023-03-01T17:13:37;5.90;99.90
51655;DHT22;37732;53.106;7.030;2023-03-01T17:16:09;5.80;99.90
51655;DHT22;37732;53.106;7.030;2023-03-01T17:18:35;5.70;99.90
51655;DHT22;37732;53.106;7.030;2023-03-01T17:21:01;5.50;99.90
51655;DHT22;37732;53.106;7.030;2023-03-01T17:23:28;5.40;99.90
51655;DHT22;37732;53.106;7.030;2023-03-01T17:25:54;5.30;99.90
51655;DHT22;37732;53.106;7.030;2023-03-01T17:28:22;5.20;99.90
51655;DHT22;37732;53.106;7.030;2023-03-01T17:30:48;5.10;99.90
51655;DHT22;37732;53.106;7.030;2023-03-01T17:33:14;5.00;99.90
51655;DHT22;37732;53.106;7.030;2023-03-01T17:35:40;4.90;99.90
51655;DHT22;37732;53.106;7.030;2023-03-01T17:38:06;4.80;99.90
51655;DHT22;37732;53.106;7.030;2023-03-01T17:40:32;4.80;99.90
51655;DHT22;37732;53.106;7.030;2023-03-01T17:42:58;4.70;99.90
51655;DHT22;37732;53.106;7.030;2023-03-01T17:45:25;4.60;99.90
51655;DHT22;37732;53.106;7.030;2023-03-01T17:47:50;4.60;99.90
51655;DHT22;37732;53.106;7.030;2023-03-01T17:50:16;4.50;99.90
51655;DHT22;37732;53.106;7.030;2023-03-01T17:52:42;4.40;99.90
51655;DHT22;37732;53.106;7.030;2023-03-01T17:55:08;4.50;99.90
51655;DHT22;37732;53.106;7.030;2023-03-01T17:57:38;4.40;99.90
51655;DHT22;37732;53.106;7.030;2023-03-01T18:00:05;4.30;99.90
51655;DHT22;37732;53.106;7.030;2023-03-01T18:02:30;4.30;99.90
51655;DHT22;37732;53.106;7.030;2023-03-01T18:04:57;4.20;99.90